Aviation Digital Data Service (ADDS)

Output produced by METARs form (1341 UTC 26 May 2018)
found at http://www.aviationweather.gov/adds/metars/
 
WSAP 261300Z 32001KT 9999 FEW015 BKN150 27/25 Q1009
TAF WSAP 261100Z 2612/2718 29007KT 9999 FEW018CB SCT020 
     TEMPO 2703/2708 3000 TSRA FEW012CB BKN015
       
WSSL 261300Z 25003KT 9999 FEW025 BKN140 26/25 Q1009 RMK 1230Z Q1009
TAF WSSL 261100Z 2612/2718 29007KT 9999 FEW018CB SCT020 
     TEMPO 2703/2708 3000 TSRA FEW012CB BKN015
       
WSSS 261330Z 33003KT 270V030 9999 FEW016 BKN170 27/25 Q1009 NOSIG
TAF WSSS 261100Z 2612/2718 29007KT 9999 FEW018CB SCT020 
     TEMPO 2703/2708 3000 TSRA FEW012CB BKN015